sensor_id;sensor_type;location;lat;lon;timestamp;P1;durP1;ratioP1;P2;durP2;ratioP2
53961;SDS011;39868;53.398;6.564;2024-02-21T00:02:29;17.33;;;16.05;;
53961;SDS011;39868;53.398;6.564;2024-02-21T00:04:56;18.40;;;16.77;;
53961;SDS011;39868;53.398;6.564;2024-02-21T00:07:23;18.20;;;16.60;;
53961;SDS011;39868;53.398;6.564;2024-02-21T00:09:51;20.90;;;18.58;;
53961;SDS011;39868;53.398;6.564;2024-02-21T00:12:18;20.50;;;18.23;;
53961;SDS011;39868;53.398;6.564;2024-02-21T00:14:46;20.25;;;18.35;;
53961;SDS011;39868;53.398;6.564;2024-02-21T00:17:13;18.80;;;17.35;;
53961;SDS011;39868;53.398;6.564;2024-02-21T00:19:40;18.48;;;17.15;;
53961;SDS011;39868;53.398;6.564;2024-02-21T00:22:07;18.70;;;17.17;;
53961;SDS011;39868;53.398;6.564;2024-02-21T00:24:35;19.08;;;17.33;;
53961;SDS011;39868;53.398;6.564;2024-02-21T00:27:02;19.20;;;17.85;;
53961;SDS011;39868;53.398;6.564;2024-02-21T00:29:29;20.50;;;18.40;;
53961;SDS011;39868;53.398;6.564;2024-02-21T00:31:56;19.75;;;18.35;;
53961;SDS011;39868;53.398;6.564;2024-02-21T00:34:24;20.48;;;18.73;;
53961;SDS011;39868;53.398;6.564;2024-02-21T00:36:51;19.52;;;17.88;;
53961;SDS011;39868;53.398;6.564;2024-02-21T00:39:18;18.23;;;16.83;;
53961;SDS011;39868;53.398;6.564;2024-02-21T00:41:45;19.33;;;17.85;;
53961;SDS011;39868;53.398;6.564;2024-02-21T00:44:12;19.58;;;18.13;;
53961;SDS011;39868;53.398;6.564;2024-02-21T00:46:40;19.75;;;18.00;;
53961;SDS011;39868;53.398;6.564;2024-02-21T00:49:07;19.42;;;17.85;;
53961;SDS011;39868;53.398;6.564;2024-02-21T00:51:34;19.50;;;17.88;;
53961;SDS011;39868;53.398;6.564;2024-02-21T00:54:01;18.60;;;17.55;;
53961;SDS011;39868;53.398;6.564;2024-02-21T00:56:29;19.48;;;17.88;;
53961;SDS011;39868;53.398;6.564;2024-02-21T00:58:57;20.35;;;18.52;;
53961;SDS011;39868;53.398;6.564;2024-02-21T01:01:24;19.20;;;17.88;;
53961;SDS011;39868;53.398;6.564;2024-02-21T01:03:52;19.65;;;18.23;;
53961;SDS011;39868;53.398;6.564;2024-02-21T01:06:20;20.08;;;18.63;;
53961;SDS011;39868;53.398;6.564;2024-02-21T01:08:48;20.10;;;18.77;;
53961;SDS011;39868;53.398;6.564;2024-02-21T01:11:15;20.23;;;18.45;;
53961;SDS011;39868;53.398;6.564;2024-02-21T01:13:44;20.98;;;18.83;;
53961;SDS011;39868;53.398;6.564;2024-02-21T01:16:11;19.60;;;18.27;;
53961;SDS011;39868;53.398;6.564;2024-02-21T01:18:38;19.67;;;17.73;;
53961;SDS011;39868;53.398;6.564;2024-02-21T01:21:06;19.50;;;17.88;;
53961;SDS011;39868;53.398;6.564;2024-02-21T01:23:34;19.98;;;18.40;;
53961;SDS011;39868;53.398;6.564;2024-02-21T01:26:03;19.42;;;17.80;;
53961;SDS011;39868;53.398;6.564;2024-02-21T01:28:30;19.73;;;18.05;;
53961;SDS011;39868;53.398;6.564;2024-02-21T01:30:58;20.25;;;18.75;;
53961;SDS011;39868;53.398;6.564;2024-02-21T01:33:25;19.75;;;18.30;;
53961;SDS011;39868;53.398;6.564;2024-02-21T01:35:52;20.70;;;18.63;;
53961;SDS011;39868;53.398;6.564;2024-02-21T01:38:20;20.45;;;18.60;;
53961;SDS011;39868;53.398;6.564;2024-02-21T01:40:47;19.08;;;17.83;;
53961;SDS011;39868;53.398;6.564;2024-02-21T01:43:16;21.17;;;19.50;;
53961;SDS011;39868;53.398;6.564;2024-02-21T01:45:46;19.83;;;18.25;;
53961;SDS011;39868;53.398;6.564;2024-02-21T01:48:17;20.48;;;19.10;;
53961;SDS011;39868;53.398;6.564;2024-02-21T01:50:52;20.55;;;18.92;;
53961;SDS011;39868;53.398;6.564;2024-02-21T01:53:22;20.35;;;18.85;;
53961;SDS011;39868;53.398;6.564;2024-02-21T01:55:52;21.20;;;19.35;;
53961;SDS011;39868;53.398;6.564;2024-02-21T01:58:20;22.13;;;20.50;;
53961;SDS011;39868;53.398;6.564;2024-02-21T02:00:47;21.10;;;19.30;;
53961;SDS011;39868;53.398;6.564;2024-02-21T02:03:16;19.88;;;18.77;;
53961;SDS011;39868;53.398;6.564;2024-02-21T02:05:48;21.60;;;19.83;;
53961;SDS011;39868;53.398;6.564;2024-02-21T02:08:16;19.93;;;18.63;;
53961;SDS011;39868;53.398;6.564;2024-02-21T02:10:45;20.92;;;19.35;;
53961;SDS011;39868;53.398;6.564;2024-02-21T02:13:12;20.45;;;19.13;;
53961;SDS011;39868;53.398;6.564;2024-02-21T02:18:08;19.52;;;18.42;;
53961;SDS011;39868;53.398;6.564;2024-02-21T02:20:36;20.20;;;18.92;;
53961;SDS011;39868;53.398;6.564;2024-02-21T02:23:07;21.90;;;20.08;;
53961;SDS011;39868;53.398;6.564;2024-02-21T02:25:48;21.27;;;19.80;;
53961;SDS011;39868;53.398;6.564;2024-02-21T02:28:18;21.20;;;19.55;;
53961;SDS011;39868;53.398;6.564;2024-02-21T02:30:46;21.48;;;19.85;;
53961;SDS011;39868;53.398;6.564;2024-02-21T02:33:13;21.10;;;19.65;;
53961;SDS011;39868;53.398;6.564;2024-02-21T02:35:41;20.90;;;19.25;;
53961;SDS011;39868;53.398;6.564;2024-02-21T02:38:08;21.48;;;20.15;;
53961;SDS011;39868;53.398;6.564;2024-02-21T02:40:37;20.88;;;19.40;;
53961;SDS011;39868;53.398;6.564;2024-02-21T02:43:07;21.13;;;19.73;;
53961;SDS011;39868;53.398;6.564;2024-02-21T02:45:34;21.83;;;20.08;;
53961;SDS011;39868;53.398;6.564;2024-02-21T02:48:01;22.00;;;19.85;;
53961;SDS011;39868;53.398;6.564;2024-02-21T02:50:29;21.45;;;19.90;;
53961;SDS011;39868;53.398;6.564;2024-02-21T02:52:56;21.58;;;20.00;;
53961;SDS011;39868;53.398;6.564;2024-02-21T02:55:24;21.70;;;19.95;;
53961;SDS011;39868;53.398;6.564;2024-02-21T02:57:53;21.20;;;19.77;;
53961;SDS011;39868;53.398;6.564;2024-02-21T03:00:20;22.25;;;20.42;;
53961;SDS011;39868;53.398;6.564;2024-02-21T03:02:48;22.70;;;20.73;;
53961;SDS011;39868;53.398;6.564;2024-02-21T03:05:17;22.38;;;20.75;;
53961;SDS011;39868;53.398;6.564;2024-02-21T03:07:48;21.23;;;19.73;;
53961;SDS011;39868;53.398;6.564;2024-02-21T03:10:16;22.27;;;20.77;;
53961;SDS011;39868;53.398;6.564;2024-02-21T03:12:44;22.77;;;20.80;;
53961;SDS011;39868;53.398;6.564;2024-02-21T03:15:13;22.75;;;20.60;;
53961;SDS011;39868;53.398;6.564;2024-02-21T03:17:41;21.83;;;20.27;;
53961;SDS011;39868;53.398;6.564;2024-02-21T03:20:09;22.02;;;20.40;;
53961;SDS011;39868;53.398;6.564;2024-02-21T03:22:39;22.20;;;20.42;;
53961;SDS011;39868;53.398;6.564;2024-02-21T03:25:07;22.30;;;20.40;;
53961;SDS011;39868;53.398;6.564;2024-02-21T03:27:39;22.23;;;20.48;;
53961;SDS011;39868;53.398;6.564;2024-02-21T03:30:06;22.55;;;20.70;;
53961;SDS011;39868;53.398;6.564;2024-02-21T03:32:34;23.10;;;21.20;;
53961;SDS011;39868;53.398;6.564;2024-02-21T03:35:01;22.73;;;21.00;;
53961;SDS011;39868;53.398;6.564;2024-02-21T03:37:29;22.60;;;20.65;;
53961;SDS011;39868;53.398;6.564;2024-02-21T03:39:56;22.52;;;20.80;;
53961;SDS011;39868;53.398;6.564;2024-02-21T03:42:23;23.15;;;21.38;;
53961;SDS011;39868;53.398;6.564;2024-02-21T03:44:51;22.52;;;21.02;;
53961;SDS011;39868;53.398;6.564;2024-02-21T03:47:19;21.77;;;20.27;;
53961;SDS011;39868;53.398;6.564;2024-02-21T03:49:46;21.60;;;20.13;;
53961;SDS011;39868;53.398;6.564;2024-02-21T03:52:13;21.20;;;19.92;;
53961;SDS011;39868;53.398;6.564;2024-02-21T03:54:40;21.42;;;19.70;;
53961;SDS011;39868;53.398;6.564;2024-02-21T03:57:07;21.13;;;19.73;;
53961;SDS011;39868;53.398;6.564;2024-02-21T03:59:35;21.73;;;20.20;;
53961;SDS011;39868;53.398;6.564;2024-02-21T04:02:02;21.95;;;20.20;;
53961;SDS011;39868;53.398;6.564;2024-02-21T04:04:35;21.85;;;20.13;;
53961;SDS011;39868;53.398;6.564;2024-02-21T04:07:04;21.55;;;20.15;;
53961;SDS011;39868;53.398;6.564;2024-02-21T04:09:35;22.05;;;20.15;;
53961;SDS011;39868;53.398;6.564;2024-02-21T04:12:02;21.23;;;19.75;;
53961;SDS011;39868;53.398;6.564;2024-02-21T04:14:30;22.40;;;20.38;;
53961;SDS011;39868;53.398;6.564;2024-02-21T04:16:57;21.77;;;20.05;;
53961;SDS011;39868;53.398;6.564;2024-02-21T04:19:24;22.75;;;20.70;;
53961;SDS011;39868;53.398;6.564;2024-02-21T04:21:52;21.90;;;20.30;;
53961;SDS011;39868;53.398;6.564;2024-02-21T04:24:19;22.80;;;20.90;;
53961;SDS011;39868;53.398;6.564;2024-02-21T04:26:46;22.45;;;20.23;;
53961;SDS011;39868;53.398;6.564;2024-02-21T04:29:14;21.77;;;20.10;;
53961;SDS011;39868;53.398;6.564;2024-02-21T04:31:41;22.60;;;20.73;;
53961;SDS011;39868;53.398;6.564;2024-02-21T04:34:08;22.33;;;20.63;;
53961;SDS011;39868;53.398;6.564;2024-02-21T04:36:36;21.63;;;19.88;;
53961;SDS011;39868;53.398;6.564;2024-02-21T04:39:03;21.95;;;20.33;;
53961;SDS011;39868;53.398;6.564;2024-02-21T04:41:30;21.95;;;20.27;;
53961;SDS011;39868;53.398;6.564;2024-02-21T04:43:57;22.25;;;20.38;;
53961;SDS011;39868;53.398;6.564;2024-02-21T04:46:24;22.05;;;20.15;;
53961;SDS011;39868;53.398;6.564;2024-02-21T04:48:52;22.20;;;20.52;;
53961;SDS011;39868;53.398;6.564;2024-02-21T04:51:19;22.02;;;20.20;;
53961;SDS011;39868;53.398;6.564;2024-02-21T04:53:46;22.25;;;20.52;;
53961;SDS011;39868;53.398;6.564;2024-02-21T04:56:13;22.48;;;20.48;;
53961;SDS011;39868;53.398;6.564;2024-02-21T04:58:40;21.92;;;20.33;;
53961;SDS011;39868;53.398;6.564;2024-02-21T05:01:08;22.23;;;20.52;;
53961;SDS011;39868;53.398;6.564;2024-02-21T05:03:35;22.48;;;20.40;;
53961;SDS011;39868;53.398;6.564;2024-02-21T05:06:03;22.38;;;20.50;;
53961;SDS011;39868;53.398;6.564;2024-02-21T05:08:30;21.17;;;19.55;;
53961;SDS011;39868;53.398;6.564;2024-02-21T05:10:57;20.83;;;19.35;;
53961;SDS011;39868;53.398;6.564;2024-02-21T05:13:25;20.60;;;19.30;;
53961;SDS011;39868;53.398;6.564;2024-02-21T05:15:53;22.48;;;20.45;;
53961;SDS011;39868;53.398;6.564;2024-02-21T05:18:20;22.02;;;20.25;;
53961;SDS011;39868;53.398;6.564;2024-02-21T05:20:48;21.70;;;20.20;;
53961;SDS011;39868;53.398;6.564;2024-02-21T05:23:15;21.83;;;19.70;;
53961;SDS011;39868;53.398;6.564;2024-02-21T05:25:42;20.38;;;18.88;;
53961;SDS011;39868;53.398;6.564;2024-02-21T05:28:09;21.17;;;19.30;;
53961;SDS011;39868;53.398;6.564;2024-02-21T05:30:37;20.75;;;19.27;;
53961;SDS011;39868;53.398;6.564;2024-02-21T05:33:05;21.33;;;19.73;;
53961;SDS011;39868;53.398;6.564;2024-02-21T05:35:33;20.67;;;19.38;;
53961;SDS011;39868;53.398;6.564;2024-02-21T05:38:01;21.65;;;19.92;;
53961;SDS011;39868;53.398;6.564;2024-02-21T05:40:33;21.23;;;19.67;;
53961;SDS011;39868;53.398;6.564;2024-02-21T05:43:00;20.08;;;18.70;;
53961;SDS011;39868;53.398;6.564;2024-02-21T05:45:28;20.35;;;19.00;;
53961;SDS011;39868;53.398;6.564;2024-02-21T05:47:55;20.52;;;19.05;;
53961;SDS011;39868;53.398;6.564;2024-02-21T05:50:24;20.33;;;19.08;;
53961;SDS011;39868;53.398;6.564;2024-02-21T05:52:51;20.58;;;19.25;;
53961;SDS011;39868;53.398;6.564;2024-02-21T05:55:19;20.52;;;19.20;;
53961;SDS011;39868;53.398;6.564;2024-02-21T05:57:46;21.65;;;19.92;;
53961;SDS011;39868;53.398;6.564;2024-02-21T06:00:14;23.02;;;21.05;;
53961;SDS011;39868;53.398;6.564;2024-02-21T06:02:42;22.73;;;21.02;;
53961;SDS011;39868;53.398;6.564;2024-02-21T06:05:09;24.02;;;21.58;;
53961;SDS011;39868;53.398;6.564;2024-02-21T06:07:38;23.40;;;21.50;;
53961;SDS011;39868;53.398;6.564;2024-02-21T06:10:06;23.10;;;21.40;;
53961;SDS011;39868;53.398;6.564;2024-02-21T06:12:34;23.27;;;21.10;;
53961;SDS011;39868;53.398;6.564;2024-02-21T06:15:01;23.58;;;21.50;;
53961;SDS011;39868;53.398;6.564;2024-02-21T06:17:29;22.38;;;20.60;;
53961;SDS011;39868;53.398;6.564;2024-02-21T06:19:56;24.55;;;21.98;;
53961;SDS011;39868;53.398;6.564;2024-02-21T06:22:24;23.77;;;21.63;;
53961;SDS011;39868;53.398;6.564;2024-02-21T06:24:51;22.52;;;20.55;;
53961;SDS011;39868;53.398;6.564;2024-02-21T06:27:20;23.75;;;21.73;;
53961;SDS011;39868;53.398;6.564;2024-02-21T06:29:48;23.13;;;21.13;;
53961;SDS011;39868;53.398;6.564;2024-02-21T06:32:15;24.23;;;21.65;;
53961;SDS011;39868;53.398;6.564;2024-02-21T06:34:43;23.52;;;21.95;;
53961;SDS011;39868;53.398;6.564;2024-02-21T06:37:10;23.35;;;21.45;;
53961;SDS011;39868;53.398;6.564;2024-02-21T06:39:38;25.60;;;23.02;;
53961;SDS011;39868;53.398;6.564;2024-02-21T06:42:07;23.20;;;21.48;;
53961;SDS011;39868;53.398;6.564;2024-02-21T06:44:34;25.40;;;23.00;;
53961;SDS011;39868;53.398;6.564;2024-02-21T06:49:35;23.27;;;21.65;;
53961;SDS011;39868;53.398;6.564;2024-02-21T06:52:05;23.25;;;21.65;;
53961;SDS011;39868;53.398;6.564;2024-02-21T06:54:33;24.15;;;22.05;;
53961;SDS011;39868;53.398;6.564;2024-02-21T06:57:00;25.02;;;22.45;;
53961;SDS011;39868;53.398;6.564;2024-02-21T06:59:27;23.90;;;22.17;;
53961;SDS011;39868;53.398;6.564;2024-02-21T07:01:54;26.02;;;23.50;;
53961;SDS011;39868;53.398;6.564;2024-02-21T07:04:22;22.77;;;20.77;;
53961;SDS011;39868;53.398;6.564;2024-02-21T07:06:50;24.67;;;22.55;;
53961;SDS011;39868;53.398;6.564;2024-02-21T07:09:18;24.23;;;21.88;;
53961;SDS011;39868;53.398;6.564;2024-02-21T07:11:45;22.60;;;20.88;;
53961;SDS011;39868;53.398;6.564;2024-02-21T07:14:13;24.85;;;22.23;;
53961;SDS011;39868;53.398;6.564;2024-02-21T07:16:42;23.02;;;21.20;;
53961;SDS011;39868;53.398;6.564;2024-02-21T07:19:09;23.60;;;21.38;;
53961;SDS011;39868;53.398;6.564;2024-02-21T07:21:36;22.42;;;20.45;;
53961;SDS011;39868;53.398;6.564;2024-02-21T07:24:04;23.83;;;21.42;;
53961;SDS011;39868;53.398;6.564;2024-02-21T07:26:32;23.50;;;21.25;;
53961;SDS011;39868;53.398;6.564;2024-02-21T07:28:59;22.83;;;20.77;;
53961;SDS011;39868;53.398;6.564;2024-02-21T07:31:27;23.02;;;20.90;;
53961;SDS011;39868;53.398;6.564;2024-02-21T07:33:54;22.17;;;20.17;;
53961;SDS011;39868;53.398;6.564;2024-02-21T07:36:28;23.10;;;21.15;;
53961;SDS011;39868;53.398;6.564;2024-02-21T07:38:59;22.33;;;20.27;;
53961;SDS011;39868;53.398;6.564;2024-02-21T07:41:26;24.58;;;22.05;;
53961;SDS011;39868;53.398;6.564;2024-02-21T07:43:56;26.83;;;24.17;;
53961;SDS011;39868;53.398;6.564;2024-02-21T07:46:24;30.02;;;25.63;;
53961;SDS011;39868;53.398;6.564;2024-02-21T07:48:51;23.60;;;21.55;;
53961;SDS011;39868;53.398;6.564;2024-02-21T07:51:19;26.42;;;23.50;;
53961;SDS011;39868;53.398;6.564;2024-02-21T07:53:46;22.52;;;20.60;;
53961;SDS011;39868;53.398;6.564;2024-02-21T07:56:15;22.55;;;20.70;;
53961;SDS011;39868;53.398;6.564;2024-02-21T07:58:42;22.27;;;20.45;;
53961;SDS011;39868;53.398;6.564;2024-02-21T08:01:11;23.27;;;21.00;;
53961;SDS011;39868;53.398;6.564;2024-02-21T08:03:44;22.23;;;20.23;;
53961;SDS011;39868;53.398;6.564;2024-02-21T08:06:12;23.95;;;21.60;;
53961;SDS011;39868;53.398;6.564;2024-02-21T08:08:40;24.20;;;21.80;;
53961;SDS011;39868;53.398;6.564;2024-02-21T08:11:07;24.33;;;21.80;;
53961;SDS011;39868;53.398;6.564;2024-02-21T08:13:35;23.95;;;21.88;;
53961;SDS011;39868;53.398;6.564;2024-02-21T08:16:02;25.23;;;22.70;;
53961;SDS011;39868;53.398;6.564;2024-02-21T08:18:30;25.38;;;22.85;;
53961;SDS011;39868;53.398;6.564;2024-02-21T08:20:58;26.08;;;23.65;;
53961;SDS011;39868;53.398;6.564;2024-02-21T08:23:25;27.60;;;24.73;;
53961;SDS011;39868;53.398;6.564;2024-02-21T08:25:53;32.65;;;24.48;;
53961;SDS011;39868;53.398;6.564;2024-02-21T08:28:20;27.67;;;23.98;;
53961;SDS011;39868;53.398;6.564;2024-02-21T08:30:48;29.73;;;24.58;;
53961;SDS011;39868;53.398;6.564;2024-02-21T08:33:15;25.95;;;23.63;;
53961;SDS011;39868;53.398;6.564;2024-02-21T08:35:46;26.67;;;24.08;;
53961;SDS011;39868;53.398;6.564;2024-02-21T08:38:13;25.15;;;22.70;;
53961;SDS011;39868;53.398;6.564;2024-02-21T08:40:41;26.88;;;24.15;;
53961;SDS011;39868;53.398;6.564;2024-02-21T08:43:08;25.08;;;22.55;;
53961;SDS011;39868;53.398;6.564;2024-02-21T08:45:35;24.90;;;22.65;;
53961;SDS011;39868;53.398;6.564;2024-02-21T08:48:03;25.13;;;22.45;;
53961;SDS011;39868;53.398;6.564;2024-02-21T08:50:31;23.02;;;21.05;;
53961;SDS011;39868;53.398;6.564;2024-02-21T08:52:59;24.38;;;21.88;;
53961;SDS011;39868;53.398;6.564;2024-02-21T08:55:26;23.58;;;21.10;;
53961;SDS011;39868;53.398;6.564;2024-02-21T08:57:54;23.55;;;21.10;;
53961;SDS011;39868;53.398;6.564;2024-02-21T09:00:21;21.10;;;19.60;;
53961;SDS011;39868;53.398;6.564;2024-02-21T09:02:54;22.30;;;20.60;;
53961;SDS011;39868;53.398;6.564;2024-02-21T09:05:22;22.35;;;20.42;;
53961;SDS011;39868;53.398;6.564;2024-02-21T09:07:52;22.20;;;20.23;;
53961;SDS011;39868;53.398;6.564;2024-02-21T09:10:20;22.63;;;20.63;;
53961;SDS011;39868;53.398;6.564;2024-02-21T09:12:47;21.92;;;19.83;;
53961;SDS011;39868;53.398;6.564;2024-02-21T09:15:14;22.73;;;20.73;;
53961;SDS011;39868;53.398;6.564;2024-02-21T09:17:42;22.98;;;21.00;;
53961;SDS011;39868;53.398;6.564;2024-02-21T09:20:09;23.20;;;21.30;;
53961;SDS011;39868;53.398;6.564;2024-02-21T09:22:38;21.92;;;20.20;;
53961;SDS011;39868;53.398;6.564;2024-02-21T09:25:06;22.38;;;20.60;;
53961;SDS011;39868;53.398;6.564;2024-02-21T09:27:34;22.75;;;20.63;;
53961;SDS011;39868;53.398;6.564;2024-02-21T09:30:01;22.65;;;20.85;;
53961;SDS011;39868;53.398;6.564;2024-02-21T09:32:31;23.17;;;21.20;;
53961;SDS011;39868;53.398;6.564;2024-02-21T09:35:01;23.10;;;21.02;;
53961;SDS011;39868;53.398;6.564;2024-02-21T09:37:31;23.80;;;21.80;;
53961;SDS011;39868;53.398;6.564;2024-02-21T09:39:58;22.55;;;20.58;;
53961;SDS011;39868;53.398;6.564;2024-02-21T09:42:30;24.77;;;22.67;;
53961;SDS011;39868;53.398;6.564;2024-02-21T09:45:09;23.90;;;21.85;;
53961;SDS011;39868;53.398;6.564;2024-02-21T09:50:17;23.73;;;21.67;;
53961;SDS011;39868;53.398;6.564;2024-02-21T09:52:48;24.08;;;21.83;;
53961;SDS011;39868;53.398;6.564;2024-02-21T09:55:16;24.08;;;22.10;;
53961;SDS011;39868;53.398;6.564;2024-02-21T09:57:45;24.98;;;22.13;;
53961;SDS011;39868;53.398;6.564;2024-02-21T10:00:12;25.13;;;22.77;;
53961;SDS011;39868;53.398;6.564;2024-02-21T10:02:48;25.75;;;23.30;;
53961;SDS011;39868;53.398;6.564;2024-02-21T10:05:18;25.30;;;23.05;;
53961;SDS011;39868;53.398;6.564;2024-02-21T10:07:47;26.67;;;24.02;;
53961;SDS011;39868;53.398;6.564;2024-02-21T10:10:15;32.30;;;27.25;;
53961;SDS011;39868;53.398;6.564;2024-02-21T10:12:49;27.27;;;24.33;;
53961;SDS011;39868;53.398;6.564;2024-02-21T10:15:21;26.70;;;24.27;;
53961;SDS011;39868;53.398;6.564;2024-02-21T10:18:00;27.25;;;24.63;;
53961;SDS011;39868;53.398;6.564;2024-02-21T10:20:28;26.63;;;24.13;;
53961;SDS011;39868;53.398;6.564;2024-02-21T10:25:30;25.70;;;23.08;;
53961;SDS011;39868;53.398;6.564;2024-02-21T10:27:57;29.85;;;25.13;;
53961;SDS011;39868;53.398;6.564;2024-02-21T10:30:24;26.42;;;23.73;;
53961;SDS011;39868;53.398;6.564;2024-02-21T10:32:55;25.40;;;23.02;;
53961;SDS011;39868;53.398;6.564;2024-02-21T10:35:29;27.00;;;24.25;;
53961;SDS011;39868;53.398;6.564;2024-02-21T10:37:58;26.90;;;23.45;;
53961;SDS011;39868;53.398;6.564;2024-02-21T10:40:27;25.65;;;23.35;;
53961;SDS011;39868;53.398;6.564;2024-02-21T10:42:59;24.13;;;22.02;;
53961;SDS011;39868;53.398;6.564;2024-02-21T10:45:31;25.33;;;22.80;;
53961;SDS011;39868;53.398;6.564;2024-02-21T10:48:11;29.27;;;24.95;;
53961;SDS011;39868;53.398;6.564;2024-02-21T10:56:15;32.25;;;26.63;;
53961;SDS011;39868;53.398;6.564;2024-02-21T10:58:43;27.60;;;24.45;;
53961;SDS011;39868;53.398;6.564;2024-02-21T11:01:12;27.90;;;25.08;;
53961;SDS011;39868;53.398;6.564;2024-02-21T11:03:42;28.95;;;25.80;;
53961;SDS011;39868;53.398;6.564;2024-02-21T11:06:12;25.25;;;22.75;;
53961;SDS011;39868;53.398;6.564;2024-02-21T11:08:40;28.88;;;25.98;;
53961;SDS011;39868;53.398;6.564;2024-02-21T11:11:07;25.73;;;23.25;;
53961;SDS011;39868;53.398;6.564;2024-02-21T11:13:49;26.63;;;23.92;;
53961;SDS011;39868;53.398;6.564;2024-02-21T11:16:23;25.70;;;23.35;;
53961;SDS011;39868;53.398;6.564;2024-02-21T11:18:50;24.58;;;22.55;;
53961;SDS011;39868;53.398;6.564;2024-02-21T11:21:18;27.17;;;24.48;;
53961;SDS011;39868;53.398;6.564;2024-02-21T11:23:54;29.23;;;25.40;;
53961;SDS011;39868;53.398;6.564;2024-02-21T11:26:22;25.98;;;23.45;;
53961;SDS011;39868;53.398;6.564;2024-02-21T11:28:58;27.23;;;24.42;;
53961;SDS011;39868;53.398;6.564;2024-02-21T11:31:50;27.08;;;24.33;;
53961;SDS011;39868;53.398;6.564;2024-02-21T11:34:19;29.77;;;26.65;;
53961;SDS011;39868;53.398;6.564;2024-02-21T11:36:50;28.90;;;25.83;;
53961;SDS011;39868;53.398;6.564;2024-02-21T11:39:22;29.33;;;26.00;;
53961;SDS011;39868;53.398;6.564;2024-02-21T11:42:03;28.77;;;25.15;;
53961;SDS011;39868;53.398;6.564;2024-02-21T11:44:32;30.63;;;25.35;;
53961;SDS011;39868;53.398;6.564;2024-02-21T11:47:00;25.90;;;23.30;;
53961;SDS011;39868;53.398;6.564;2024-02-21T11:49:30;26.80;;;24.13;;
53961;SDS011;39868;53.398;6.564;2024-02-21T11:52:01;27.05;;;24.35;;
53961;SDS011;39868;53.398;6.564;2024-02-21T11:54:33;25.38;;;22.92;;
53961;SDS011;39868;53.398;6.564;2024-02-21T11:57:01;25.63;;;23.02;;
53961;SDS011;39868;53.398;6.564;2024-02-21T11:59:31;24.98;;;22.48;;
53961;SDS011;39868;53.398;6.564;2024-02-21T12:01:59;26.20;;;23.50;;
53961;SDS011;39868;53.398;6.564;2024-02-21T12:04:27;25.88;;;23.23;;
53961;SDS011;39868;53.398;6.564;2024-02-21T12:06:56;24.90;;;22.73;;
53961;SDS011;39868;53.398;6.564;2024-02-21T12:09:25;24.70;;;22.40;;
53961;SDS011;39868;53.398;6.564;2024-02-21T12:11:59;24.02;;;21.92;;
53961;SDS011;39868;53.398;6.564;2024-02-21T12:14:32;23.70;;;21.63;;
53961;SDS011;39868;53.398;6.564;2024-02-21T12:17:01;23.48;;;21.40;;
53961;SDS011;39868;53.398;6.564;2024-02-21T12:19:32;24.35;;;22.02;;
53961;SDS011;39868;53.398;6.564;2024-02-21T12:22:00;23.73;;;21.52;;
53961;SDS011;39868;53.398;6.564;2024-02-21T12:24:33;24.23;;;21.88;;
53961;SDS011;39868;53.398;6.564;2024-02-21T12:27:00;22.85;;;20.92;;
53961;SDS011;39868;53.398;6.564;2024-02-21T12:29:30;26.48;;;23.80;;
53961;SDS011;39868;53.398;6.564;2024-02-21T12:31:57;23.35;;;21.40;;
53961;SDS011;39868;53.398;6.564;2024-02-21T12:34:25;23.25;;;20.60;;
53961;SDS011;39868;53.398;6.564;2024-02-21T12:37:10;23.15;;;21.08;;
53961;SDS011;39868;53.398;6.564;2024-02-21T12:39:40;21.73;;;19.98;;
53961;SDS011;39868;53.398;6.564;2024-02-21T12:42:07;22.08;;;20.23;;
53961;SDS011;39868;53.398;6.564;2024-02-21T12:44:38;21.67;;;19.98;;
53961;SDS011;39868;53.398;6.564;2024-02-21T12:47:06;21.55;;;19.92;;
53961;SDS011;39868;53.398;6.564;2024-02-21T12:49:34;21.45;;;19.75;;
53961;SDS011;39868;53.398;6.564;2024-02-21T12:52:02;20.73;;;19.00;;
53961;SDS011;39868;53.398;6.564;2024-02-21T12:54:30;21.33;;;19.52;;
53961;SDS011;39868;53.398;6.564;2024-02-21T12:56:58;21.42;;;19.58;;
53961;SDS011;39868;53.398;6.564;2024-02-21T12:59:29;20.90;;;19.40;;
53961;SDS011;39868;53.398;6.564;2024-02-21T13:01:57;21.30;;;19.58;;
53961;SDS011;39868;53.398;6.564;2024-02-21T13:04:24;21.75;;;19.70;;
53961;SDS011;39868;53.398;6.564;2024-02-21T13:06:55;20.38;;;18.73;;
53961;SDS011;39868;53.398;6.564;2024-02-21T13:09:22;21.50;;;19.55;;
53961;SDS011;39868;53.398;6.564;2024-02-21T13:11:52;19.88;;;18.45;;
53961;SDS011;39868;53.398;6.564;2024-02-21T13:14:20;20.38;;;18.38;;
53961;SDS011;39868;53.398;6.564;2024-02-21T13:16:49;19.70;;;18.17;;
53961;SDS011;39868;53.398;6.564;2024-02-21T13:19:17;20.48;;;18.45;;
53961;SDS011;39868;53.398;6.564;2024-02-21T13:21:45;20.27;;;18.52;;
53961;SDS011;39868;53.398;6.564;2024-02-21T13:24:12;19.63;;;18.02;;
53961;SDS011;39868;53.398;6.564;2024-02-21T13:26:39;20.83;;;18.77;;
53961;SDS011;39868;53.398;6.564;2024-02-21T13:29:07;18.98;;;17.10;;
53961;SDS011;39868;53.398;6.564;2024-02-21T13:31:34;18.70;;;17.30;;
53961;SDS011;39868;53.398;6.564;2024-02-21T13:34:01;19.05;;;17.55;;
53961;SDS011;39868;53.398;6.564;2024-02-21T13:36:30;19.92;;;18.27;;
53961;SDS011;39868;53.398;6.564;2024-02-21T13:38:58;19.90;;;18.20;;
53961;SDS011;39868;53.398;6.564;2024-02-21T13:41:25;18.75;;;17.17;;
53961;SDS011;39868;53.398;6.564;2024-02-21T13:43:53;17.80;;;16.40;;
53961;SDS011;39868;53.398;6.564;2024-02-21T13:46:22;18.30;;;17.00;;
53961;SDS011;39868;53.398;6.564;2024-02-21T13:48:49;17.98;;;16.58;;
53961;SDS011;39868;53.398;6.564;2024-02-21T13:51:19;17.58;;;16.35;;
53961;SDS011;39868;53.398;6.564;2024-02-21T13:53:46;17.73;;;16.33;;
53961;SDS011;39868;53.398;6.564;2024-02-21T13:56:13;18.20;;;16.85;;
53961;SDS011;39868;53.398;6.564;2024-02-21T13:58:41;17.75;;;16.35;;
53961;SDS011;39868;53.398;6.564;2024-02-21T14:01:08;19.05;;;17.73;;
53961;SDS011;39868;53.398;6.564;2024-02-21T14:03:36;18.67;;;17.25;;
53961;SDS011;39868;53.398;6.564;2024-02-21T14:06:03;18.67;;;17.27;;
53961;SDS011;39868;53.398;6.564;2024-02-21T14:08:31;19.38;;;17.40;;
53961;SDS011;39868;53.398;6.564;2024-02-21T14:11:00;18.42;;;16.95;;
53961;SDS011;39868;53.398;6.564;2024-02-21T14:13:28;17.67;;;16.25;;
53961;SDS011;39868;53.398;6.564;2024-02-21T14:15:55;17.88;;;16.63;;
53961;SDS011;39868;53.398;6.564;2024-02-21T14:18:23;17.77;;;16.40;;
53961;SDS011;39868;53.398;6.564;2024-02-21T14:20:50;17.00;;;15.90;;
53961;SDS011;39868;53.398;6.564;2024-02-21T14:23:17;17.50;;;16.20;;
53961;SDS011;39868;53.398;6.564;2024-02-21T14:25:45;17.42;;;16.23;;
53961;SDS011;39868;53.398;6.564;2024-02-21T14:28:12;17.27;;;15.93;;
53961;SDS011;39868;53.398;6.564;2024-02-21T14:30:47;17.17;;;15.98;;
53961;SDS011;39868;53.398;6.564;2024-02-21T14:33:15;16.77;;;15.80;;
53961;SDS011;39868;53.398;6.564;2024-02-21T14:35:43;16.98;;;15.95;;
53961;SDS011;39868;53.398;6.564;2024-02-21T14:38:10;17.52;;;16.33;;
53961;SDS011;39868;53.398;6.564;2024-02-21T14:40:37;17.95;;;16.58;;
53961;SDS011;39868;53.398;6.564;2024-02-21T14:43:05;17.30;;;16.10;;
53961;SDS011;39868;53.398;6.564;2024-02-21T14:45:32;16.90;;;15.88;;